Terminal Aerodrome Forecast
Issued by NWS

Current Version | Previous Version | Text Only | Print | Product List | Glossary On
Versions: 1 2 3 4 5 6 7 8 9 10 11 12 13 14 15 16 17 18 19 20 21 22 23
687
FTUS44 KLZK 261136
TAFBPK
TAF
KBPK 261136Z 2612/2712 VRB05KT P6SM OVC020
     FM261400 25005KT P6SM SCT025 SCT250
     FM261600 20006KT P6SM SCT250
     FM270000 15008G15KT P6SM VCSH SCT050 BKN100 OVC250 PROB30
      2702/2708 5SM -TSRA BKN050CB=

USA.gov is the U.S. government's official web portal to all federal, state and local government web resources and services.